Julien, Iowa
Current Conditions -  °F | °C
As of 8:10 AM on Sunday 25 Jan 2015 (Local Time) from KDBQ Reporting Station
Light Snow Light Snow  
Wind Chill: 12°   Ceiling: 700
Heat Index: 26°   Visibility: 0.75mi
Dew Point: 24°   Wind: 20mph
Humidity: 92%   Direction: 50°NE
Pressure: 29.77"   Gusts: 30mph
Location:  42.549°N, 90.6988°W
Report Text: KDBQ 251410Z 05017G26KT 3/4SM R36/4000V5000FT -SN BR BKN007 OVC015 M03/M04 A2977 RMK AO2 PK WND 04026/1401 P0001 T10331044 $
Loading
Personal Weather Stations






























Interactive Weather Map New forecast layout! Learn more

10-Day Weather Forecast

Advertisements
Track Severe Weather on mobile